Old Picacho, New Mexico
Current Conditions -  °F | °C
As of 5:55 PM on Saturday 22 Nov 2014 (Local Time) from KLRU Reporting Station
Clear Clear  
Wind Chill: 56°   Ceiling: Unl
Heat Index: 56°   Visibility: 10mi
Dew Point: 17°   Wind: 13mph
Humidity: 22%   Direction: 240°WSW
Pressure: 29.93"   Gusts: 17mph
Location:  32.3074°N, 106.837°W
Report Text: KLRU 230055Z AUTO 24011G15KT 10SM CLR 14/M08 A2993 RMK AO2 T01351083
Loading
Personal Weather Stations






























Interactive Weather Map New forecast layout! Learn more

10-Day Weather Forecast

Advertisements
Track Severe Weather on mobile